sensor_id;sensor_type;location;lat;lon;timestamp;P1;durP1;ratioP1;P2;durP2;ratioP2
21183;SDS011;18176;49.502;11.754;2023-06-22T00:00:24;11.80;;;7.55;;
21183;SDS011;18176;49.502;11.754;2023-06-22T00:04:25;9.15;;;7.22;;
21183;SDS011;18176;49.502;11.754;2023-06-22T00:08:29;8.88;;;7.20;;
21183;SDS011;18176;49.502;11.754;2023-06-22T00:12:29;9.38;;;7.20;;
21183;SDS011;18176;49.502;11.754;2023-06-22T00:16:30;8.70;;;7.47;;
21183;SDS011;18176;49.502;11.754;2023-06-22T00:20:32;11.88;;;7.63;;
21183;SDS011;18176;49.502;11.754;2023-06-22T00:24:36;10.02;;;7.53;;
21183;SDS011;18176;49.502;11.754;2023-06-22T00:28:36;8.38;;;7.25;;
21183;SDS011;18176;49.502;11.754;2023-06-22T00:32:36;12.27;;;8.50;;
21183;SDS011;18176;49.502;11.754;2023-06-22T00:36:37;9.02;;;7.68;;
21183;SDS011;18176;49.502;11.754;2023-06-22T00:40:40;11.00;;;8.00;;
21183;SDS011;18176;49.502;11.754;2023-06-22T00:44:40;8.77;;;7.25;;
21183;SDS011;18176;49.502;11.754;2023-06-22T00:48:41;8.30;;;7.10;;
21183;SDS011;18176;49.502;11.754;2023-06-22T00:52:42;8.32;;;7.13;;
21183;SDS011;18176;49.502;11.754;2023-06-22T00:56:45;10.13;;;7.50;;
21183;SDS011;18176;49.502;11.754;2023-06-22T01:00:46;8.57;;;7.35;;
21183;SDS011;18176;49.502;11.754;2023-06-22T01:04:47;10.57;;;7.10;;
21183;SDS011;18176;49.502;11.754;2023-06-22T01:08:49;9.10;;;7.13;;
21183;SDS011;18176;49.502;11.754;2023-06-22T01:13:06;7.57;;;6.50;;
21183;SDS011;18176;49.502;11.754;2023-06-22T01:17:22;7.95;;;6.57;;
21183;SDS011;18176;49.502;11.754;2023-06-22T01:21:28;10.65;;;7.70;;
21183;SDS011;18176;49.502;11.754;2023-06-22T01:25:31;8.45;;;7.32;;
21183;SDS011;18176;49.502;11.754;2023-06-22T01:29:45;8.43;;;7.05;;
21183;SDS011;18176;49.502;11.754;2023-06-22T01:33:48;12.70;;;7.32;;
21183;SDS011;18176;49.502;11.754;2023-06-22T01:37:52;11.13;;;8.38;;
21183;SDS011;18176;49.502;11.754;2023-06-22T01:41:54;10.38;;;8.38;;
21183;SDS011;18176;49.502;11.754;2023-06-22T01:46:00;11.25;;;8.82;;
21183;SDS011;18176;49.502;11.754;2023-06-22T01:50:01;10.25;;;8.50;;
21183;SDS011;18176;49.502;11.754;2023-06-22T01:54:03;12.07;;;8.65;;
21183;SDS011;18176;49.502;11.754;2023-06-22T01:58:05;11.02;;;8.20;;
21183;SDS011;18176;49.502;11.754;2023-06-22T02:02:09;10.55;;;8.10;;
21183;SDS011;18176;49.502;11.754;2023-06-22T02:06:15;12.82;;;8.57;;
21183;SDS011;18176;49.502;11.754;2023-06-22T02:10:23;12.10;;;8.40;;
21183;SDS011;18176;49.502;11.754;2023-06-22T02:14:26;12.40;;;8.38;;
21183;SDS011;18176;49.502;11.754;2023-06-22T02:18:31;9.13;;;7.45;;
21183;SDS011;18176;49.502;11.754;2023-06-22T02:22:32;10.70;;;7.78;;
21183;SDS011;18176;49.502;11.754;2023-06-22T02:26:33;10.60;;;7.38;;
21183;SDS011;18176;49.502;11.754;2023-06-22T02:30:35;10.90;;;8.15;;
21183;SDS011;18176;49.502;11.754;2023-06-22T02:34:39;9.75;;;7.60;;
21183;SDS011;18176;49.502;11.754;2023-06-22T02:38:40;10.00;;;7.88;;
21183;SDS011;18176;49.502;11.754;2023-06-22T02:42:42;11.70;;;7.82;;
21183;SDS011;18176;49.502;11.754;2023-06-22T02:46:44;9.30;;;7.55;;
21183;SDS011;18176;49.502;11.754;2023-06-22T02:50:49;9.95;;;7.63;;
21183;SDS011;18176;49.502;11.754;2023-06-22T02:54:49;9.32;;;7.50;;
21183;SDS011;18176;49.502;11.754;2023-06-22T02:58:50;11.02;;;7.90;;
21183;SDS011;18176;49.502;11.754;2023-06-22T03:02:50;10.02;;;7.32;;
21183;SDS011;18176;49.502;11.754;2023-06-22T03:06:53;17.50;;;8.52;;
21183;SDS011;18176;49.502;11.754;2023-06-22T03:11:00;11.63;;;8.38;;
21183;SDS011;18176;49.502;11.754;2023-06-22T03:15:00;13.05;;;8.45;;
21183;SDS011;18176;49.502;11.754;2023-06-22T03:19:01;9.40;;;7.68;;
21183;SDS011;18176;49.502;11.754;2023-06-22T03:23:04;14.38;;;9.07;;
21183;SDS011;18176;49.502;11.754;2023-06-22T03:27:04;12.18;;;8.73;;
21183;SDS011;18176;49.502;11.754;2023-06-22T03:31:05;12.63;;;8.85;;
21183;SDS011;18176;49.502;11.754;2023-06-22T03:35:08;12.35;;;9.57;;
21183;SDS011;18176;49.502;11.754;2023-06-22T03:39:13;12.55;;;8.85;;
21183;SDS011;18176;49.502;11.754;2023-06-22T03:43:14;12.13;;;9.18;;
21183;SDS011;18176;49.502;11.754;2023-06-22T03:47:14;12.63;;;8.98;;
21183;SDS011;18176;49.502;11.754;2023-06-22T03:51:15;10.25;;;8.68;;
21183;SDS011;18176;49.502;11.754;2023-06-22T03:55:19;15.13;;;8.98;;
21183;SDS011;18176;49.502;11.754;2023-06-22T03:59:19;13.90;;;9.38;;
21183;SDS011;18176;49.502;11.754;2023-06-22T04:03:19;15.45;;;9.45;;
21183;SDS011;18176;49.502;11.754;2023-06-22T04:07:20;11.55;;;8.75;;
21183;SDS011;18176;49.502;11.754;2023-06-22T04:11:23;16.67;;;10.13;;
21183;SDS011;18176;49.502;11.754;2023-06-22T04:15:24;15.57;;;11.07;;
21183;SDS011;18176;49.502;11.754;2023-06-22T04:19:24;12.63;;;11.13;;
21183;SDS011;18176;49.502;11.754;2023-06-22T04:23:24;17.90;;;13.77;;
21183;SDS011;18176;49.502;11.754;2023-06-22T04:27:28;16.90;;;13.45;;
21183;SDS011;18176;49.502;11.754;2023-06-22T04:31:28;15.90;;;14.15;;
21183;SDS011;18176;49.502;11.754;2023-06-22T04:35:29;18.60;;;13.20;;
21183;SDS011;18176;49.502;11.754;2023-06-22T04:39:29;14.50;;;12.93;;
21183;SDS011;18176;49.502;11.754;2023-06-22T04:43:33;19.58;;;13.68;;
21183;SDS011;18176;49.502;11.754;2023-06-22T04:47:34;16.73;;;13.50;;
21183;SDS011;18176;49.502;11.754;2023-06-22T04:51:37;18.40;;;13.73;;
21183;SDS011;18176;49.502;11.754;2023-06-22T04:55:39;17.92;;;13.35;;
21183;SDS011;18176;49.502;11.754;2023-06-22T04:59:46;16.67;;;12.98;;
21183;SDS011;18176;49.502;11.754;2023-06-22T05:03:46;15.05;;;12.20;;
21183;SDS011;18176;49.502;11.754;2023-06-22T05:07:49;19.63;;;12.65;;
21183;SDS011;18176;49.502;11.754;2023-06-22T05:11:56;17.67;;;12.65;;
21183;SDS011;18176;49.502;11.754;2023-06-22T05:16:01;15.30;;;12.65;;
21183;SDS011;18176;49.502;11.754;2023-06-22T05:20:03;13.98;;;12.50;;
21183;SDS011;18176;49.502;11.754;2023-06-22T05:24:05;15.15;;;11.75;;
21183;SDS011;18176;49.502;11.754;2023-06-22T05:28:06;15.82;;;11.95;;
21183;SDS011;18176;49.502;11.754;2023-06-22T05:32:10;16.13;;;12.90;;
21183;SDS011;18176;49.502;11.754;2023-06-22T05:36:11;14.75;;;12.40;;
21183;SDS011;18176;49.502;11.754;2023-06-22T05:40:12;15.77;;;12.60;;
21183;SDS011;18176;49.502;11.754;2023-06-22T05:44:13;15.38;;;12.63;;
21183;SDS011;18176;49.502;11.754;2023-06-22T05:48:16;12.35;;;10.75;;
21183;SDS011;18176;49.502;11.754;2023-06-22T05:52:16;13.63;;;10.90;;
21183;SDS011;18176;49.502;11.754;2023-06-22T05:56:17;16.13;;;12.05;;
21183;SDS011;18176;49.502;11.754;2023-06-22T06:00:18;12.48;;;11.18;;
21183;SDS011;18176;49.502;11.754;2023-06-22T06:04:23;14.98;;;11.77;;
21183;SDS011;18176;49.502;11.754;2023-06-22T06:08:23;12.80;;;10.77;;
21183;SDS011;18176;49.502;11.754;2023-06-22T06:12:24;11.77;;;10.63;;
21183;SDS011;18176;49.502;11.754;2023-06-22T06:16:25;15.70;;;10.75;;
21183;SDS011;18176;49.502;11.754;2023-06-22T06:20:29;14.13;;;10.63;;
21183;SDS011;18176;49.502;11.754;2023-06-22T06:24:30;11.43;;;9.80;;
21183;SDS011;18176;49.502;11.754;2023-06-22T06:28:33;14.18;;;10.35;;
21183;SDS011;18176;49.502;11.754;2023-06-22T06:32:34;12.68;;;10.15;;
21183;SDS011;18176;49.502;11.754;2023-06-22T06:36:37;13.27;;;9.95;;
21183;SDS011;18176;49.502;11.754;2023-06-22T06:40:38;13.68;;;10.02;;
21183;SDS011;18176;49.502;11.754;2023-06-22T06:44:38;12.55;;;9.13;;
21183;SDS011;18176;49.502;11.754;2023-06-22T06:48:39;11.98;;;9.98;;
21183;SDS011;18176;49.502;11.754;2023-06-22T06:52:42;13.93;;;10.18;;
21183;SDS011;18176;49.502;11.754;2023-06-22T06:56:42;13.45;;;10.10;;
21183;SDS011;18176;49.502;11.754;2023-06-22T07:00:44;12.73;;;9.48;;
21183;SDS011;18176;49.502;11.754;2023-06-22T07:04:45;13.27;;;10.02;;
21183;SDS011;18176;49.502;11.754;2023-06-22T07:08:48;13.25;;;10.45;;
21183;SDS011;18176;49.502;11.754;2023-06-22T07:12:49;10.65;;;9.55;;
21183;SDS011;18176;49.502;11.754;2023-06-22T07:16:49;13.63;;;10.80;;
21183;SDS011;18176;49.502;11.754;2023-06-22T07:20:50;14.80;;;10.75;;
21183;SDS011;18176;49.502;11.754;2023-06-22T07:24:53;14.93;;;10.63;;
21183;SDS011;18176;49.502;11.754;2023-06-22T07:28:53;14.32;;;10.25;;
21183;SDS011;18176;49.502;11.754;2023-06-22T07:32:54;16.73;;;10.93;;
21183;SDS011;18176;49.502;11.754;2023-06-22T07:36:55;14.55;;;10.45;;
21183;SDS011;18176;49.502;11.754;2023-06-22T07:40:58;15.57;;;11.18;;
21183;SDS011;18176;49.502;11.754;2023-06-22T07:44:59;10.65;;;9.45;;
21183;SDS011;18176;49.502;11.754;2023-06-22T07:49:00;14.57;;;10.07;;
21183;SDS011;18176;49.502;11.754;2023-06-22T07:53:01;9.75;;;8.75;;
21183;SDS011;18176;49.502;11.754;2023-06-22T07:57:05;11.25;;;8.77;;
21183;SDS011;18176;49.502;11.754;2023-06-22T08:01:05;10.20;;;8.48;;
21183;SDS011;18176;49.502;11.754;2023-06-22T08:05:06;12.88;;;8.80;;
21183;SDS011;18176;49.502;11.754;2023-06-22T08:09:17;11.32;;;9.20;;
21183;SDS011;18176;49.502;11.754;2023-06-22T08:13:21;9.50;;;8.38;;
21183;SDS011;18176;49.502;11.754;2023-06-22T08:17:21;11.35;;;7.97;;
21183;SDS011;18176;49.502;11.754;2023-06-22T08:21:22;9.48;;;7.20;;
21183;SDS011;18176;49.502;11.754;2023-06-22T08:25:23;11.35;;;6.47;;
21183;SDS011;18176;49.502;11.754;2023-06-22T08:29:26;12.95;;;6.07;;
21183;SDS011;18176;49.502;11.754;2023-06-22T08:33:27;12.15;;;5.97;;
21183;SDS011;18176;49.502;11.754;2023-06-22T08:37:27;7.47;;;5.95;;
21183;SDS011;18176;49.502;11.754;2023-06-22T08:41:32;8.25;;;6.07;;
21183;SDS011;18176;49.502;11.754;2023-06-22T08:45:36;8.55;;;6.05;;
21183;SDS011;18176;49.502;11.754;2023-06-22T08:49:40;9.95;;;6.18;;
21183;SDS011;18176;49.502;11.754;2023-06-22T08:53:40;9.52;;;5.35;;
21183;SDS011;18176;49.502;11.754;2023-06-22T08:57:41;12.02;;;5.95;;
21183;SDS011;18176;49.502;11.754;2023-06-22T09:01:45;7.95;;;5.72;;
21183;SDS011;18176;49.502;11.754;2023-06-22T09:05:45;10.48;;;6.43;;
21183;SDS011;18176;49.502;11.754;2023-06-22T09:09:46;9.50;;;6.22;;
21183;SDS011;18176;49.502;11.754;2023-06-22T09:13:46;8.70;;;6.28;;
21183;SDS011;18176;49.502;11.754;2023-06-22T09:17:50;9.07;;;6.60;;
21183;SDS011;18176;49.502;11.754;2023-06-22T09:21:51;8.85;;;6.65;;
21183;SDS011;18176;49.502;11.754;2023-06-22T09:25:51;8.85;;;5.80;;
21183;SDS011;18176;49.502;11.754;2023-06-22T09:29:51;9.55;;;5.70;;
21183;SDS011;18176;49.502;11.754;2023-06-22T09:33:55;8.93;;;5.93;;
21183;SDS011;18176;49.502;11.754;2023-06-22T09:37:55;12.05;;;6.30;;
21183;SDS011;18176;49.502;11.754;2023-06-22T09:41:57;8.75;;;6.20;;
21183;SDS011;18176;49.502;11.754;2023-06-22T09:45:58;12.02;;;6.28;;
21183;SDS011;18176;49.502;11.754;2023-06-22T09:50:02;9.25;;;6.28;;
21183;SDS011;18176;49.502;11.754;2023-06-22T09:54:04;7.65;;;6.18;;
21183;SDS011;18176;49.502;11.754;2023-06-22T09:58:04;8.40;;;5.50;;
21183;SDS011;18176;49.502;11.754;2023-06-22T10:02:05;10.07;;;6.10;;
21183;SDS011;18176;49.502;11.754;2023-06-22T10:06:09;11.60;;;6.20;;
21183;SDS011;18176;49.502;11.754;2023-06-22T10:10:10;9.98;;;6.18;;
21183;SDS011;18176;49.502;11.754;2023-06-22T10:14:12;10.75;;;6.55;;
21183;SDS011;18176;49.502;11.754;2023-06-22T10:18:13;12.05;;;6.28;;
21183;SDS011;18176;49.502;11.754;2023-06-22T10:22:16;10.73;;;6.18;;
21183;SDS011;18176;49.502;11.754;2023-06-22T10:26:17;15.07;;;6.57;;
21183;SDS011;18176;49.502;11.754;2023-06-22T10:30:17;15.73;;;6.30;;
21183;SDS011;18176;49.502;11.754;2023-06-22T10:34:18;12.30;;;6.68;;
21183;SDS011;18176;49.502;11.754;2023-06-22T10:38:21;11.48;;;6.57;;
21183;SDS011;18176;49.502;11.754;2023-06-22T10:42:21;13.25;;;6.10;;
21183;SDS011;18176;49.502;11.754;2023-06-22T10:46:24;14.57;;;6.28;;
21183;SDS011;18176;49.502;11.754;2023-06-22T10:50:25;11.60;;;5.90;;
21183;SDS011;18176;49.502;11.754;2023-06-22T10:54:29;11.85;;;6.13;;
21183;SDS011;18176;49.502;11.754;2023-06-22T10:58:30;11.65;;;5.97;;
21183;SDS011;18176;49.502;11.754;2023-06-22T11:02:30;10.98;;;6.05;;
21183;SDS011;18176;49.502;11.754;2023-06-22T11:06:31;12.18;;;6.15;;
21183;SDS011;18176;49.502;11.754;2023-06-22T11:10:35;11.95;;;6.40;;
21183;SDS011;18176;49.502;11.754;2023-06-22T11:14:36;11.52;;;5.97;;
21183;SDS011;18176;49.502;11.754;2023-06-22T11:18:38;12.63;;;6.30;;
21183;SDS011;18176;49.502;11.754;2023-06-22T11:22:39;12.27;;;6.10;;
21183;SDS011;18176;49.502;11.754;2023-06-22T11:26:43;10.98;;;5.80;;
21183;SDS011;18176;49.502;11.754;2023-06-22T11:30:43;9.02;;;5.70;;
21183;SDS011;18176;49.502;11.754;2023-06-22T11:34:43;13.13;;;5.43;;
21183;SDS011;18176;49.502;11.754;2023-06-22T11:38:44;10.50;;;6.22;;
21183;SDS011;18176;49.502;11.754;2023-06-22T11:42:47;10.45;;;5.70;;
21183;SDS011;18176;49.502;11.754;2023-06-22T11:46:47;10.18;;;5.60;;
21183;SDS011;18176;49.502;11.754;2023-06-22T11:50:48;12.55;;;5.78;;
21183;SDS011;18176;49.502;11.754;2023-06-22T11:54:48;10.70;;;6.15;;
21183;SDS011;18176;49.502;11.754;2023-06-22T11:58:51;9.55;;;6.00;;
21183;SDS011;18176;49.502;11.754;2023-06-22T12:02:52;11.70;;;5.50;;
21183;SDS011;18176;49.502;11.754;2023-06-22T12:06:56;14.45;;;6.20;;
21183;SDS011;18176;49.502;11.754;2023-06-22T12:10:56;12.70;;;6.07;;
21183;SDS011;18176;49.502;11.754;2023-06-22T12:14:59;11.63;;;5.43;;
21183;SDS011;18176;49.502;11.754;2023-06-22T12:19:00;20.45;;;5.97;;
21183;SDS011;18176;49.502;11.754;2023-06-22T12:23:01;11.15;;;5.70;;
21183;SDS011;18176;49.502;11.754;2023-06-22T12:27:01;15.98;;;5.72;;
21183;SDS011;18176;49.502;11.754;2023-06-22T12:31:06;16.92;;;6.32;;
21183;SDS011;18176;49.502;11.754;2023-06-22T12:35:07;10.75;;;5.60;;
21183;SDS011;18176;49.502;11.754;2023-06-22T12:39:10;12.63;;;5.70;;
21183;SDS011;18176;49.502;11.754;2023-06-22T12:43:11;14.20;;;6.03;;
21183;SDS011;18176;49.502;11.754;2023-06-22T12:47:14;13.25;;;5.82;;
21183;SDS011;18176;49.502;11.754;2023-06-22T12:51:20;14.90;;;5.80;;
21183;SDS011;18176;49.502;11.754;2023-06-22T12:55:21;15.90;;;6.30;;
21183;SDS011;18176;49.502;11.754;2023-06-22T12:59:22;10.32;;;5.72;;
21183;SDS011;18176;49.502;11.754;2023-06-22T13:03:25;17.95;;;6.28;;
21183;SDS011;18176;49.502;11.754;2023-06-22T13:07:25;9.63;;;5.70;;
21183;SDS011;18176;49.502;11.754;2023-06-22T13:11:26;18.63;;;6.20;;
21183;SDS011;18176;49.502;11.754;2023-06-22T13:15:26;13.88;;;6.00;;
21183;SDS011;18176;49.502;11.754;2023-06-22T13:19:30;18.73;;;6.05;;
21183;SDS011;18176;49.502;11.754;2023-06-22T13:23:31;15.48;;;6.30;;
21183;SDS011;18176;49.502;11.754;2023-06-22T13:27:31;15.80;;;6.15;;
21183;SDS011;18176;49.502;11.754;2023-06-22T13:31:32;12.57;;;6.10;;
21183;SDS011;18176;49.502;11.754;2023-06-22T13:35:35;15.70;;;5.90;;
21183;SDS011;18176;49.502;11.754;2023-06-22T13:39:36;11.30;;;5.88;;
21183;SDS011;18176;49.502;11.754;2023-06-22T13:43:36;11.88;;;5.90;;
21183;SDS011;18176;49.502;11.754;2023-06-22T13:47:37;11.52;;;5.88;;
21183;SDS011;18176;49.502;11.754;2023-06-22T13:51:40;16.60;;;6.18;;
21183;SDS011;18176;49.502;11.754;2023-06-22T13:55:41;13.38;;;5.80;;
21183;SDS011;18176;49.502;11.754;2023-06-22T13:59:41;14.40;;;5.82;;
21183;SDS011;18176;49.502;11.754;2023-06-22T14:03:41;11.15;;;5.95;;
21183;SDS011;18176;49.502;11.754;2023-06-22T14:07:46;18.75;;;6.07;;
21183;SDS011;18176;49.502;11.754;2023-06-22T14:11:46;14.15;;;6.10;;
21183;SDS011;18176;49.502;11.754;2023-06-22T14:15:46;19.48;;;6.45;;
21183;SDS011;18176;49.502;11.754;2023-06-22T14:19:49;16.10;;;5.78;;
21183;SDS011;18176;49.502;11.754;2023-06-22T14:23:52;16.95;;;6.32;;
21183;SDS011;18176;49.502;11.754;2023-06-22T14:27:52;20.30;;;6.07;;
21183;SDS011;18176;49.502;11.754;2023-06-22T14:31:53;15.35;;;6.53;;
21183;SDS011;18176;49.502;11.754;2023-06-22T14:35:54;14.55;;;5.95;;
21183;SDS011;18176;49.502;11.754;2023-06-22T14:39:57;17.35;;;6.05;;
21183;SDS011;18176;49.502;11.754;2023-06-22T14:43:57;16.08;;;6.45;;
21183;SDS011;18176;49.502;11.754;2023-06-22T14:47:58;16.45;;;6.32;;
21183;SDS011;18176;49.502;11.754;2023-06-22T14:51:59;10.07;;;5.40;;
21183;SDS011;18176;49.502;11.754;2023-06-22T14:56:02;15.07;;;5.70;;
21183;SDS011;18176;49.502;11.754;2023-06-22T15:00:05;12.63;;;5.97;;
21183;SDS011;18176;49.502;11.754;2023-06-22T15:04:07;15.20;;;6.03;;
21183;SDS011;18176;49.502;11.754;2023-06-22T15:08:08;14.30;;;6.03;;
21183;SDS011;18176;49.502;11.754;2023-06-22T15:12:11;13.00;;;6.38;;
21183;SDS011;18176;49.502;11.754;2023-06-22T15:16:11;11.27;;;5.45;;
21183;SDS011;18176;49.502;11.754;2023-06-22T15:20:12;16.23;;;5.82;;
21183;SDS011;18176;49.502;11.754;2023-06-22T15:24:12;14.45;;;5.90;;
21183;SDS011;18176;49.502;11.754;2023-06-22T15:28:15;17.23;;;6.75;;
21183;SDS011;18176;49.502;11.754;2023-06-22T15:32:18;15.57;;;6.53;;
21183;SDS011;18176;49.502;11.754;2023-06-22T15:36:18;15.68;;;6.18;;
21183;SDS011;18176;49.502;11.754;2023-06-22T15:40:20;18.45;;;6.13;;
21183;SDS011;18176;49.502;11.754;2023-06-22T15:44:23;16.45;;;6.22;;
21183;SDS011;18176;49.502;11.754;2023-06-22T15:48:24;20.38;;;6.28;;
21183;SDS011;18176;49.502;11.754;2023-06-22T15:52:24;13.98;;;5.57;;
21183;SDS011;18176;49.502;11.754;2023-06-22T15:56:25;12.50;;;6.18;;
21183;SDS011;18176;49.502;11.754;2023-06-22T16:00:28;15.10;;;6.40;;
21183;SDS011;18176;49.502;11.754;2023-06-22T16:04:29;18.45;;;6.40;;
21183;SDS011;18176;49.502;11.754;2023-06-22T16:08:30;17.98;;;6.25;;
21183;SDS011;18176;49.502;11.754;2023-06-22T16:12:30;17.10;;;6.72;;
21183;SDS011;18176;49.502;11.754;2023-06-22T16:16:36;15.80;;;5.85;;
21183;SDS011;18176;49.502;11.754;2023-06-22T16:20:36;12.38;;;6.10;;
21183;SDS011;18176;49.502;11.754;2023-06-22T16:24:37;16.58;;;7.00;;
21183;SDS011;18176;49.502;11.754;2023-06-22T16:28:38;14.90;;;6.15;;
21183;SDS011;18176;49.502;11.754;2023-06-22T16:32:45;15.13;;;6.43;;
21183;SDS011;18176;49.502;11.754;2023-06-22T16:36:51;12.95;;;5.95;;
21183;SDS011;18176;49.502;11.754;2023-06-22T16:40:51;21.58;;;7.30;;
21183;SDS011;18176;49.502;11.754;2023-06-22T16:44:54;14.10;;;6.78;;
21183;SDS011;18176;49.502;11.754;2023-06-22T16:48:57;13.18;;;6.93;;
21183;SDS011;18176;49.502;11.754;2023-06-22T16:52:58;13.25;;;7.20;;
21183;SDS011;18176;49.502;11.754;2023-06-22T16:56:59;21.27;;;8.38;;
21183;SDS011;18176;49.502;11.754;2023-06-22T17:01:02;17.52;;;8.48;;
21183;SDS011;18176;49.502;11.754;2023-06-22T17:05:09;18.83;;;8.15;;
21183;SDS011;18176;49.502;11.754;2023-06-22T17:09:11;20.58;;;8.57;;
21183;SDS011;18176;49.502;11.754;2023-06-22T17:13:13;22.83;;;8.70;;
21183;SDS011;18176;49.502;11.754;2023-06-22T17:17:15;15.98;;;8.40;;
21183;SDS011;18176;49.502;11.754;2023-06-22T17:21:23;17.50;;;8.55;;
21183;SDS011;18176;49.502;11.754;2023-06-22T17:25:27;24.40;;;8.45;;
21183;SDS011;18176;49.502;11.754;2023-06-22T17:29:29;17.80;;;8.35;;
21183;SDS011;18176;49.502;11.754;2023-06-22T17:33:31;18.27;;;8.98;;
21183;SDS011;18176;49.502;11.754;2023-06-22T17:37:45;21.17;;;9.07;;
21183;SDS011;18176;49.502;11.754;2023-06-22T17:41:50;23.23;;;9.60;;
21183;SDS011;18176;49.502;11.754;2023-06-22T17:45:51;15.48;;;9.52;;
21183;SDS011;18176;49.502;11.754;2023-06-22T17:50:03;19.38;;;9.75;;
21183;SDS011;18176;49.502;11.754;2023-06-22T17:54:09;18.48;;;9.18;;
21183;SDS011;18176;49.502;11.754;2023-06-22T17:58:10;27.67;;;8.95;;
21183;SDS011;18176;49.502;11.754;2023-06-22T18:02:11;20.00;;;8.90;;
21183;SDS011;18176;49.502;11.754;2023-06-22T18:06:16;19.02;;;9.77;;
21183;SDS011;18176;49.502;11.754;2023-06-22T18:10:22;22.17;;;9.18;;
21183;SDS011;18176;49.502;11.754;2023-06-22T18:14:26;18.35;;;9.82;;
21183;SDS011;18176;49.502;11.754;2023-06-22T18:18:27;19.05;;;9.50;;
21183;SDS011;18176;49.502;11.754;2023-06-22T18:22:31;23.55;;;9.73;;
21183;SDS011;18176;49.502;11.754;2023-06-22T18:26:35;18.73;;;9.35;;
21183;SDS011;18176;49.502;11.754;2023-06-22T18:30:37;20.58;;;9.90;;
21183;SDS011;18176;49.502;11.754;2023-06-22T18:34:39;36.25;;;11.10;;
21183;SDS011;18176;49.502;11.754;2023-06-22T18:38:40;31.33;;;11.13;;
21183;SDS011;18176;49.502;11.754;2023-06-22T18:42:47;22.58;;;10.57;;
21183;SDS011;18176;49.502;11.754;2023-06-22T18:46:49;24.00;;;11.32;;
21183;SDS011;18176;49.502;11.754;2023-06-22T18:50:53;21.42;;;10.85;;
21183;SDS011;18176;49.502;11.754;2023-06-22T18:55:13;22.70;;;10.43;;
21183;SDS011;18176;49.502;11.754;2023-06-22T18:59:16;24.15;;;11.10;;
21183;SDS011;18176;49.502;11.754;2023-06-22T19:03:48;25.75;;;11.13;;
21183;SDS011;18176;49.502;11.754;2023-06-22T19:08:00;22.08;;;10.18;;
21183;SDS011;18176;49.502;11.754;2023-06-22T19:16:26;22.08;;;9.30;;
21183;SDS011;18176;49.502;11.754;2023-06-22T19:20:31;20.17;;;7.88;;
21183;SDS011;18176;49.502;11.754;2023-06-22T19:24:46;23.75;;;7.88;;
21183;SDS011;18176;49.502;11.754;2023-06-22T19:28:49;18.05;;;6.70;;
21183;SDS011;18176;49.502;11.754;2023-06-22T19:32:56;19.25;;;6.88;;
21183;SDS011;18176;49.502;11.754;2023-06-22T19:36:58;22.48;;;6.85;;
21183;SDS011;18176;49.502;11.754;2023-06-22T19:40:59;23.08;;;6.32;;
21183;SDS011;18176;49.502;11.754;2023-06-22T19:45:00;19.25;;;6.50;;
21183;SDS011;18176;49.502;11.754;2023-06-22T19:49:04;18.40;;;6.63;;
21183;SDS011;18176;49.502;11.754;2023-06-22T19:53:08;23.05;;;6.70;;
21183;SDS011;18176;49.502;11.754;2023-06-22T19:57:09;16.67;;;5.97;;
21183;SDS011;18176;49.502;11.754;2023-06-22T20:01:10;16.90;;;6.00;;
21183;SDS011;18176;49.502;11.754;2023-06-22T20:05:14;23.38;;;12.52;;
21183;SDS011;18176;49.502;11.754;2023-06-22T20:09:14;20.73;;;6.65;;
21183;SDS011;18176;49.502;11.754;2023-06-22T20:13:15;20.63;;;6.35;;
21183;SDS011;18176;49.502;11.754;2023-06-22T20:17:39;23.42;;;6.15;;
21183;SDS011;18176;49.502;11.754;2023-06-22T20:21:46;20.20;;;5.55;;
21183;SDS011;18176;49.502;11.754;2023-06-22T20:25:47;16.67;;;4.55;;
21183;SDS011;18176;49.502;11.754;2023-06-22T20:29:50;17.48;;;4.95;;
21183;SDS011;18176;49.502;11.754;2023-06-22T20:34:01;10.13;;;4.70;;
21183;SDS011;18176;49.502;11.754;2023-06-22T20:38:05;13.55;;;4.70;;
21183;SDS011;18176;49.502;11.754;2023-06-22T20:42:06;22.63;;;5.97;;
21183;SDS011;18176;49.502;11.754;2023-06-22T20:46:09;9.85;;;4.68;;
21183;SDS011;18176;49.502;11.754;2023-06-22T20:50:10;17.20;;;5.82;;
21183;SDS011;18176;49.502;11.754;2023-06-22T20:54:13;17.50;;;6.03;;
21183;SDS011;18176;49.502;11.754;2023-06-22T20:58:14;18.52;;;6.90;;
21183;SDS011;18176;49.502;11.754;2023-06-22T21:02:14;27.55;;;6.93;;
21183;SDS011;18176;49.502;11.754;2023-06-22T21:06:16;16.95;;;6.80;;
21183;SDS011;18176;49.502;11.754;2023-06-22T21:10:20;13.98;;;6.30;;
21183;SDS011;18176;49.502;11.754;2023-06-22T21:14:20;15.75;;;5.40;;
21183;SDS011;18176;49.502;11.754;2023-06-22T21:18:20;16.92;;;6.00;;
21183;SDS011;18176;49.502;11.754;2023-06-22T21:22:21;15.80;;;6.38;;
21183;SDS011;18176;49.502;11.754;2023-06-22T21:26:24;19.70;;;6.63;;
21183;SDS011;18176;49.502;11.754;2023-06-22T21:30:24;18.17;;;6.95;;
21183;SDS011;18176;49.502;11.754;2023-06-22T21:34:25;17.10;;;7.32;;
21183;SDS011;18176;49.502;11.754;2023-06-22T21:38:25;15.93;;;8.05;;
21183;SDS011;18176;49.502;11.754;2023-06-22T21:42:28;13.27;;;6.93;;
21183;SDS011;18176;49.502;11.754;2023-06-22T21:46:29;15.43;;;6.97;;
21183;SDS011;18176;49.502;11.754;2023-06-22T21:50:29;16.20;;;7.72;;
21183;SDS011;18176;49.502;11.754;2023-06-22T21:54:30;19.20;;;7.70;;
21183;SDS011;18176;49.502;11.754;2023-06-22T21:58:33;18.48;;;7.68;;
21183;SDS011;18176;49.502;11.754;2023-06-22T22:02:33;27.88;;;9.32;;
21183;SDS011;18176;49.502;11.754;2023-06-22T22:06:34;22.65;;;9.25;;
21183;SDS011;18176;49.502;11.754;2023-06-22T22:10:34;23.77;;;9.77;;
21183;SDS011;18176;49.502;11.754;2023-06-22T22:14:37;25.27;;;9.25;;
21183;SDS011;18176;49.502;11.754;2023-06-22T22:18:38;21.25;;;8.65;;
21183;SDS011;18176;49.502;11.754;2023-06-22T22:22:41;19.65;;;8.07;;
21183;SDS011;18176;49.502;11.754;2023-06-22T22:26:42;21.77;;;7.93;;
21183;SDS011;18176;49.502;11.754;2023-06-22T22:30:45;16.60;;;7.93;;
21183;SDS011;18176;49.502;11.754;2023-06-22T22:34:45;21.95;;;8.60;;
21183;SDS011;18176;49.502;11.754;2023-06-22T22:38:46;24.92;;;8.10;;
21183;SDS011;18176;49.502;11.754;2023-06-22T22:42:47;19.30;;;7.70;;
21183;SDS011;18176;49.502;11.754;2023-06-22T22:46:50;17.27;;;7.95;;
21183;SDS011;18176;49.502;11.754;2023-06-22T22:50:50;22.40;;;8.68;;
21183;SDS011;18176;49.502;11.754;2023-06-22T22:54:50;22.80;;;7.88;;
21183;SDS011;18176;49.502;11.754;2023-06-22T22:58:51;18.95;;;8.20;;
21183;SDS011;18176;49.502;11.754;2023-06-22T23:02:54;18.63;;;8.55;;
21183;SDS011;18176;49.502;11.754;2023-06-22T23:06:55;18.77;;;8.65;;
21183;SDS011;18176;49.502;11.754;2023-06-22T23:10:56;26.42;;;9.68;;
21183;SDS011;18176;49.502;11.754;2023-06-22T23:14:56;22.13;;;8.32;;
21183;SDS011;18176;49.502;11.754;2023-06-22T23:19:00;15.80;;;8.15;;
21183;SDS011;18176;49.502;11.754;2023-06-22T23:23:00;22.40;;;9.23;;
21183;SDS011;18176;49.502;11.754;2023-06-22T23:27:01;21.60;;;9.02;;
21183;SDS011;18176;49.502;11.754;2023-06-22T23:31:04;21.55;;;9.60;;
21183;SDS011;18176;49.502;11.754;2023-06-22T23:35:08;21.58;;;9.80;;
21183;SDS011;18176;49.502;11.754;2023-06-22T23:39:09;25.30;;;9.80;;